sensor_id;sensor_type;location;lat;lon;timestamp;P1;durP1;ratioP1;P2;durP2;ratioP2
5125;SDS011;63008;53.112;8.896;2023-07-22T00:01:26;11.37;;;8.07;;
5125;SDS011;63008;53.112;8.896;2023-07-22T00:03:27;10.10;;;7.40;;
5125;SDS011;63008;53.112;8.896;2023-07-22T00:05:29;11.47;;;8.30;;
5125;SDS011;63008;53.112;8.896;2023-07-22T00:07:30;12.77;;;7.70;;
5125;SDS011;63008;53.112;8.896;2023-07-22T00:09:34;12.83;;;7.30;;
5125;SDS011;63008;53.112;8.896;2023-07-22T00:11:35;11.93;;;7.03;;
5125;SDS011;63008;53.112;8.896;2023-07-22T00:13:36;11.10;;;7.43;;
5125;SDS011;63008;53.112;8.896;2023-07-22T00:15:37;11.23;;;6.93;;
5125;SDS011;63008;53.112;8.896;2023-07-22T00:17:39;10.70;;;7.90;;
5125;SDS011;63008;53.112;8.896;2023-07-22T00:19:40;9.37;;;6.90;;
5125;SDS011;63008;53.112;8.896;2023-07-22T00:21:41;12.37;;;7.30;;
5125;SDS011;63008;53.112;8.896;2023-07-22T00:23:42;9.20;;;7.10;;
5125;SDS011;63008;53.112;8.896;2023-07-22T00:25:43;12.27;;;7.40;;
5125;SDS011;63008;53.112;8.896;2023-07-22T00:27:44;11.33;;;6.67;;
5125;SDS011;63008;53.112;8.896;2023-07-22T00:29:45;9.80;;;7.23;;
5125;SDS011;63008;53.112;8.896;2023-07-22T00:31:46;10.07;;;6.77;;
5125;SDS011;63008;53.112;8.896;2023-07-22T00:33:47;14.80;;;7.33;;
5125;SDS011;63008;53.112;8.896;2023-07-22T00:35:48;9.70;;;7.13;;
5125;SDS011;63008;53.112;8.896;2023-07-22T00:37:52;10.43;;;7.50;;
5125;SDS011;63008;53.112;8.896;2023-07-22T00:39:53;16.47;;;7.13;;
5125;SDS011;63008;53.112;8.896;2023-07-22T00:41:55;11.60;;;8.00;;
5125;SDS011;63008;53.112;8.896;2023-07-22T00:43:56;9.20;;;7.17;;
5125;SDS011;63008;53.112;8.896;2023-07-22T00:45:57;11.63;;;7.20;;
5125;SDS011;63008;53.112;8.896;2023-07-22T00:47:58;10.73;;;6.70;;
5125;SDS011;63008;53.112;8.896;2023-07-22T00:49:59;14.43;;;7.43;;
5125;SDS011;63008;53.112;8.896;2023-07-22T00:52:02;12.40;;;7.83;;
5125;SDS011;63008;53.112;8.896;2023-07-22T00:54:03;8.63;;;7.20;;
5125;SDS011;63008;53.112;8.896;2023-07-22T00:56:05;10.03;;;7.07;;
5125;SDS011;63008;53.112;8.896;2023-07-22T00:58:06;10.03;;;7.53;;
5125;SDS011;63008;53.112;8.896;2023-07-22T01:00:08;10.10;;;6.67;;
5125;SDS011;63008;53.112;8.896;2023-07-22T01:02:12;11.27;;;7.20;;
5125;SDS011;63008;53.112;8.896;2023-07-22T01:04:13;12.00;;;6.80;;
5125;SDS011;63008;53.112;8.896;2023-07-22T01:06:16;10.83;;;7.43;;
5125;SDS011;63008;53.112;8.896;2023-07-22T01:08:18;16.03;;;8.10;;
5125;SDS011;63008;53.112;8.896;2023-07-22T01:10:19;12.33;;;7.47;;
5125;SDS011;63008;53.112;8.896;2023-07-22T01:12:21;12.53;;;7.73;;
5125;SDS011;63008;53.112;8.896;2023-07-22T01:14:22;9.50;;;6.60;;
5125;SDS011;63008;53.112;8.896;2023-07-22T01:16:23;14.33;;;7.07;;
5125;SDS011;63008;53.112;8.896;2023-07-22T01:18:25;10.60;;;7.40;;
5125;SDS011;63008;53.112;8.896;2023-07-22T01:20:29;12.10;;;7.60;;
5125;SDS011;63008;53.112;8.896;2023-07-22T01:22:31;10.77;;;7.63;;
5125;SDS011;63008;53.112;8.896;2023-07-22T01:24:33;13.37;;;6.90;;
5125;SDS011;63008;53.112;8.896;2023-07-22T01:26:35;20.37;;;8.97;;
5125;SDS011;63008;53.112;8.896;2023-07-22T01:28:35;8.37;;;6.90;;
5125;SDS011;63008;53.112;8.896;2023-07-22T01:30:36;15.53;;;7.70;;
5125;SDS011;63008;53.112;8.896;2023-07-22T01:32:37;11.37;;;7.50;;
5125;SDS011;63008;53.112;8.896;2023-07-22T01:34:39;13.33;;;6.90;;
5125;SDS011;63008;53.112;8.896;2023-07-22T01:36:40;10.27;;;7.00;;
5125;SDS011;63008;53.112;8.896;2023-07-22T01:38:41;7.43;;;5.90;;
5125;SDS011;63008;53.112;8.896;2023-07-22T01:40:42;14.93;;;7.27;;
5125;SDS011;63008;53.112;8.896;2023-07-22T01:42:43;10.50;;;6.60;;
5125;SDS011;63008;53.112;8.896;2023-07-22T01:44:44;11.60;;;7.10;;
5125;SDS011;63008;53.112;8.896;2023-07-22T01:46:45;17.20;;;6.90;;
5125;SDS011;63008;53.112;8.896;2023-07-22T01:48:46;12.53;;;6.57;;
5125;SDS011;63008;53.112;8.896;2023-07-22T01:50:47;11.90;;;6.83;;
5125;SDS011;63008;53.112;8.896;2023-07-22T01:52:48;9.87;;;6.43;;
5125;SDS011;63008;53.112;8.896;2023-07-22T01:54:49;13.57;;;6.87;;
5125;SDS011;63008;53.112;8.896;2023-07-22T01:56:50;19.43;;;7.37;;
5125;SDS011;63008;53.112;8.896;2023-07-22T01:58:51;12.07;;;7.03;;
5125;SDS011;63008;53.112;8.896;2023-07-22T02:00:52;9.53;;;7.83;;
5125;SDS011;63008;53.112;8.896;2023-07-22T02:02:53;13.60;;;7.00;;
5125;SDS011;63008;53.112;8.896;2023-07-22T02:04:54;11.00;;;6.20;;
5125;SDS011;63008;53.112;8.896;2023-07-22T02:06:55;11.10;;;7.33;;
5125;SDS011;63008;53.112;8.896;2023-07-22T02:08:56;10.33;;;6.47;;
5125;SDS011;63008;53.112;8.896;2023-07-22T02:11:03;11.27;;;6.80;;
5125;SDS011;63008;53.112;8.896;2023-07-22T02:13:06;14.03;;;6.97;;
5125;SDS011;63008;53.112;8.896;2023-07-22T02:15:08;15.17;;;6.83;;
5125;SDS011;63008;53.112;8.896;2023-07-22T02:17:09;11.67;;;6.47;;
5125;SDS011;63008;53.112;8.896;2023-07-22T02:19:11;17.90;;;7.07;;
5125;SDS011;63008;53.112;8.896;2023-07-22T02:21:12;15.03;;;6.73;;
5125;SDS011;63008;53.112;8.896;2023-07-22T02:23:13;14.70;;;6.07;;
5125;SDS011;63008;53.112;8.896;2023-07-22T02:25:14;14.23;;;6.63;;
5125;SDS011;63008;53.112;8.896;2023-07-22T02:27:15;7.07;;;5.30;;
5125;SDS011;63008;53.112;8.896;2023-07-22T02:29:17;15.07;;;6.80;;
5125;SDS011;63008;53.112;8.896;2023-07-22T02:31:20;9.90;;;6.93;;
5125;SDS011;63008;53.112;8.896;2023-07-22T02:33:23;10.03;;;5.80;;
5125;SDS011;63008;53.112;8.896;2023-07-22T02:35:24;13.83;;;6.17;;
5125;SDS011;63008;53.112;8.896;2023-07-22T02:37:25;14.90;;;6.33;;
5125;SDS011;63008;53.112;8.896;2023-07-22T02:39:25;14.30;;;6.27;;
5125;SDS011;63008;53.112;8.896;2023-07-22T02:41:27;12.60;;;6.90;;
5125;SDS011;63008;53.112;8.896;2023-07-22T02:43:28;14.07;;;7.20;;
5125;SDS011;63008;53.112;8.896;2023-07-22T02:45:29;12.93;;;6.07;;
5125;SDS011;63008;53.112;8.896;2023-07-22T02:47:32;15.83;;;6.53;;
5125;SDS011;63008;53.112;8.896;2023-07-22T02:49:33;14.27;;;6.57;;
5125;SDS011;63008;53.112;8.896;2023-07-22T02:51:34;10.30;;;6.23;;
5125;SDS011;63008;53.112;8.896;2023-07-22T02:53:35;13.07;;;7.30;;
5125;SDS011;63008;53.112;8.896;2023-07-22T02:55:39;16.30;;;6.77;;
5125;SDS011;63008;53.112;8.896;2023-07-22T02:57:40;13.00;;;6.80;;
5125;SDS011;63008;53.112;8.896;2023-07-22T02:59:41;11.57;;;6.60;;
5125;SDS011;63008;53.112;8.896;2023-07-22T03:01:42;12.27;;;6.73;;
5125;SDS011;63008;53.112;8.896;2023-07-22T03:03:43;13.17;;;7.07;;
5125;SDS011;63008;53.112;8.896;2023-07-22T03:05:44;14.73;;;6.43;;
5125;SDS011;63008;53.112;8.896;2023-07-22T03:07:45;12.60;;;6.70;;
5125;SDS011;63008;53.112;8.896;2023-07-22T03:09:46;11.23;;;6.30;;
5125;SDS011;63008;53.112;8.896;2023-07-22T03:11:47;13.57;;;7.70;;
5125;SDS011;63008;53.112;8.896;2023-07-22T03:13:48;10.37;;;6.07;;
5125;SDS011;63008;53.112;8.896;2023-07-22T03:15:49;14.87;;;7.00;;
5125;SDS011;63008;53.112;8.896;2023-07-22T03:17:50;13.83;;;7.07;;
5125;SDS011;63008;53.112;8.896;2023-07-22T03:19:51;16.70;;;7.17;;
5125;SDS011;63008;53.112;8.896;2023-07-22T03:21:52;15.80;;;7.87;;
5125;SDS011;63008;53.112;8.896;2023-07-22T03:23:53;15.63;;;7.50;;
5125;SDS011;63008;53.112;8.896;2023-07-22T03:25:54;13.20;;;7.33;;
5125;SDS011;63008;53.112;8.896;2023-07-22T03:27:55;14.17;;;7.30;;
5125;SDS011;63008;53.112;8.896;2023-07-22T03:29:56;9.03;;;6.60;;
5125;SDS011;63008;53.112;8.896;2023-07-22T03:31:57;15.60;;;7.90;;
5125;SDS011;63008;53.112;8.896;2023-07-22T03:34:00;12.50;;;6.63;;
5125;SDS011;63008;53.112;8.896;2023-07-22T03:36:01;11.80;;;7.30;;
5125;SDS011;63008;53.112;8.896;2023-07-22T03:38:02;12.43;;;6.73;;
5125;SDS011;63008;53.112;8.896;2023-07-22T03:40:05;13.77;;;6.80;;
5125;SDS011;63008;53.112;8.896;2023-07-22T03:42:08;15.10;;;7.70;;
5125;SDS011;63008;53.112;8.896;2023-07-22T03:44:09;15.90;;;7.13;;
5125;SDS011;63008;53.112;8.896;2023-07-22T03:46:10;14.43;;;6.80;;
5125;SDS011;63008;53.112;8.896;2023-07-22T03:48:11;14.17;;;7.33;;
5125;SDS011;63008;53.112;8.896;2023-07-22T03:50:12;10.90;;;6.13;;
5125;SDS011;63008;53.112;8.896;2023-07-22T03:52:13;14.90;;;6.70;;
5125;SDS011;63008;53.112;8.896;2023-07-22T03:54:18;11.33;;;6.60;;
5125;SDS011;63008;53.112;8.896;2023-07-22T03:56:20;17.03;;;7.93;;
5125;SDS011;63008;53.112;8.896;2023-07-22T03:58:21;12.07;;;6.30;;
5125;SDS011;63008;53.112;8.896;2023-07-22T04:00:22;10.83;;;6.60;;
5125;SDS011;63008;53.112;8.896;2023-07-22T04:02:23;11.00;;;6.97;;
5125;SDS011;63008;53.112;8.896;2023-07-22T04:04:25;10.30;;;6.77;;
5125;SDS011;63008;53.112;8.896;2023-07-22T04:06:26;12.30;;;6.63;;
5125;SDS011;63008;53.112;8.896;2023-07-22T04:08:27;14.97;;;6.70;;
5125;SDS011;63008;53.112;8.896;2023-07-22T04:10:27;9.77;;;6.17;;
5125;SDS011;63008;53.112;8.896;2023-07-22T04:12:28;11.40;;;6.80;;
5125;SDS011;63008;53.112;8.896;2023-07-22T04:14:29;15.90;;;5.77;;
5125;SDS011;63008;53.112;8.896;2023-07-22T04:16:30;16.63;;;7.07;;
5125;SDS011;63008;53.112;8.896;2023-07-22T04:18:31;13.47;;;6.50;;
5125;SDS011;63008;53.112;8.896;2023-07-22T04:20:35;12.23;;;7.07;;
5125;SDS011;63008;53.112;8.896;2023-07-22T04:22:35;11.60;;;6.17;;
5125;SDS011;63008;53.112;8.896;2023-07-22T04:24:36;14.77;;;6.57;;
5125;SDS011;63008;53.112;8.896;2023-07-22T04:26:38;11.57;;;6.67;;
5125;SDS011;63008;53.112;8.896;2023-07-22T04:28:40;10.07;;;6.20;;
5125;SDS011;63008;53.112;8.896;2023-07-22T04:30:41;14.37;;;6.20;;
5125;SDS011;63008;53.112;8.896;2023-07-22T04:32:42;9.90;;;6.50;;
5125;SDS011;63008;53.112;8.896;2023-07-22T04:34:42;8.80;;;5.80;;
5125;SDS011;63008;53.112;8.896;2023-07-22T04:36:43;8.60;;;6.43;;
5125;SDS011;63008;53.112;8.896;2023-07-22T04:38:44;11.37;;;6.80;;
5125;SDS011;63008;53.112;8.896;2023-07-22T04:40:45;16.73;;;6.50;;
5125;SDS011;63008;53.112;8.896;2023-07-22T04:42:46;17.23;;;7.13;;
5125;SDS011;63008;53.112;8.896;2023-07-22T04:44:47;11.73;;;6.80;;
5125;SDS011;63008;53.112;8.896;2023-07-22T04:46:49;14.73;;;7.57;;
5125;SDS011;63008;53.112;8.896;2023-07-22T04:48:50;9.83;;;6.13;;
5125;SDS011;63008;53.112;8.896;2023-07-22T04:50:51;15.93;;;7.80;;
5125;SDS011;63008;53.112;8.896;2023-07-22T04:52:52;12.67;;;6.10;;
5125;SDS011;63008;53.112;8.896;2023-07-22T04:54:53;9.57;;;5.83;;
5125;SDS011;63008;53.112;8.896;2023-07-22T04:56:54;12.33;;;6.43;;
5125;SDS011;63008;53.112;8.896;2023-07-22T04:58:55;14.00;;;6.77;;
5125;SDS011;63008;53.112;8.896;2023-07-22T05:00:55;17.00;;;7.60;;
5125;SDS011;63008;53.112;8.896;2023-07-22T05:02:57;12.30;;;7.10;;
5125;SDS011;63008;53.112;8.896;2023-07-22T05:04:58;10.60;;;6.53;;
5125;SDS011;63008;53.112;8.896;2023-07-22T05:06:59;13.23;;;6.87;;
5125;SDS011;63008;53.112;8.896;2023-07-22T05:09:00;11.83;;;6.20;;
5125;SDS011;63008;53.112;8.896;2023-07-22T05:11:01;10.80;;;6.80;;
5125;SDS011;63008;53.112;8.896;2023-07-22T05:13:02;9.40;;;6.50;;
5125;SDS011;63008;53.112;8.896;2023-07-22T05:15:03;11.90;;;6.73;;
5125;SDS011;63008;53.112;8.896;2023-07-22T05:17:04;8.77;;;6.43;;
5125;SDS011;63008;53.112;8.896;2023-07-22T05:19:05;11.63;;;7.00;;
5125;SDS011;63008;53.112;8.896;2023-07-22T05:21:08;8.37;;;5.83;;
5125;SDS011;63008;53.112;8.896;2023-07-22T05:23:09;14.00;;;6.60;;
5125;SDS011;63008;53.112;8.896;2023-07-22T05:25:10;10.97;;;6.10;;
5125;SDS011;63008;53.112;8.896;2023-07-22T05:27:11;8.70;;;6.30;;
5125;SDS011;63008;53.112;8.896;2023-07-22T05:29:12;9.43;;;5.80;;
5125;SDS011;63008;53.112;8.896;2023-07-22T05:31:13;15.33;;;6.40;;
5125;SDS011;63008;53.112;8.896;2023-07-22T05:33:14;12.37;;;6.03;;
5125;SDS011;63008;53.112;8.896;2023-07-22T05:35:15;12.13;;;6.10;;
5125;SDS011;63008;53.112;8.896;2023-07-22T05:37:16;8.40;;;5.13;;
5125;SDS011;63008;53.112;8.896;2023-07-22T05:39:17;10.70;;;5.50;;
5125;SDS011;63008;53.112;8.896;2023-07-22T05:41:19;12.70;;;4.93;;
5125;SDS011;63008;53.112;8.896;2023-07-22T05:43:20;9.17;;;4.67;;
5125;SDS011;63008;53.112;8.896;2023-07-22T05:45:22;7.50;;;4.73;;
5125;SDS011;63008;53.112;8.896;2023-07-22T05:47:23;6.57;;;4.67;;
5125;SDS011;63008;53.112;8.896;2023-07-22T05:49:24;9.77;;;4.90;;
5125;SDS011;63008;53.112;8.896;2023-07-22T05:51:25;10.57;;;4.73;;
5125;SDS011;63008;53.112;8.896;2023-07-22T05:53:27;8.60;;;5.07;;
5125;SDS011;63008;53.112;8.896;2023-07-22T05:55:28;8.13;;;4.50;;
5125;SDS011;63008;53.112;8.896;2023-07-22T05:57:29;12.37;;;5.23;;
5125;SDS011;63008;53.112;8.896;2023-07-22T05:59:30;5.33;;;4.27;;
5125;SDS011;63008;53.112;8.896;2023-07-22T06:01:31;10.60;;;4.70;;
5125;SDS011;63008;53.112;8.896;2023-07-22T06:03:32;7.90;;;4.80;;
5125;SDS011;63008;53.112;8.896;2023-07-22T06:05:33;8.50;;;5.10;;
5125;SDS011;63008;53.112;8.896;2023-07-22T06:07:34;7.10;;;4.33;;
5125;SDS011;63008;53.112;8.896;2023-07-22T06:09:35;9.20;;;4.63;;
5125;SDS011;63008;53.112;8.896;2023-07-22T06:11:36;11.97;;;5.50;;
5125;SDS011;63008;53.112;8.896;2023-07-22T06:13:37;9.13;;;4.87;;
5125;SDS011;63008;53.112;8.896;2023-07-22T06:15:38;7.67;;;5.30;;
5125;SDS011;63008;53.112;8.896;2023-07-22T06:17:39;7.17;;;4.40;;
5125;SDS011;63008;53.112;8.896;2023-07-22T06:19:40;7.83;;;5.10;;
5125;SDS011;63008;53.112;8.896;2023-07-22T06:21:41;6.77;;;5.10;;
5125;SDS011;63008;53.112;8.896;2023-07-22T06:23:42;11.20;;;5.33;;
5125;SDS011;63008;53.112;8.896;2023-07-22T06:25:43;8.20;;;4.87;;
5125;SDS011;63008;53.112;8.896;2023-07-22T06:27:44;8.27;;;4.67;;
5125;SDS011;63008;53.112;8.896;2023-07-22T06:29:45;8.17;;;5.40;;
5125;SDS011;63008;53.112;8.896;2023-07-22T06:31:46;9.73;;;5.70;;
5125;SDS011;63008;53.112;8.896;2023-07-22T06:33:47;9.00;;;4.90;;
5125;SDS011;63008;53.112;8.896;2023-07-22T06:35:47;9.80;;;5.00;;
5125;SDS011;63008;53.112;8.896;2023-07-22T06:37:49;15.33;;;5.13;;
5125;SDS011;63008;53.112;8.896;2023-07-22T06:39:50;7.23;;;4.70;;
5125;SDS011;63008;53.112;8.896;2023-07-22T06:41:51;8.30;;;5.40;;
5125;SDS011;63008;53.112;8.896;2023-07-22T06:43:52;9.13;;;5.20;;
5125;SDS011;63008;53.112;8.896;2023-07-22T06:45:53;16.80;;;4.10;;
5125;SDS011;63008;53.112;8.896;2023-07-22T06:47:54;9.33;;;4.40;;
5125;SDS011;63008;53.112;8.896;2023-07-22T06:49:55;5.80;;;4.30;;
5125;SDS011;63008;53.112;8.896;2023-07-22T06:51:56;5.93;;;4.13;;
5125;SDS011;63008;53.112;8.896;2023-07-22T06:53:57;5.10;;;4.13;;
5125;SDS011;63008;53.112;8.896;2023-07-22T06:55:58;7.93;;;4.27;;
5125;SDS011;63008;53.112;8.896;2023-07-22T06:57:59;4.40;;;3.80;;
5125;SDS011;63008;53.112;8.896;2023-07-22T07:00:00;10.33;;;3.87;;
5125;SDS011;63008;53.112;8.896;2023-07-22T07:02:01;6.17;;;3.70;;
5125;SDS011;63008;53.112;8.896;2023-07-22T07:04:04;3.70;;;3.40;;
5125;SDS011;63008;53.112;8.896;2023-07-22T07:06:05;3.40;;;3.10;;
5125;SDS011;63008;53.112;8.896;2023-07-22T07:08:05;7.30;;;3.50;;
5125;SDS011;63008;53.112;8.896;2023-07-22T07:10:07;5.03;;;3.90;;
5125;SDS011;63008;53.112;8.896;2023-07-22T07:12:08;4.57;;;3.63;;
5125;SDS011;63008;53.112;8.896;2023-07-22T07:14:09;7.70;;;3.97;;
5125;SDS011;63008;53.112;8.896;2023-07-22T07:16:20;4.83;;;3.30;;
5125;SDS011;63008;53.112;8.896;2023-07-22T07:18:23;7.17;;;3.43;;
5125;SDS011;63008;53.112;8.896;2023-07-22T07:20:24;4.90;;;3.80;;
5125;SDS011;63008;53.112;8.896;2023-07-22T07:22:25;8.07;;;3.93;;
5125;SDS011;63008;53.112;8.896;2023-07-22T07:24:26;4.47;;;3.67;;
5125;SDS011;63008;53.112;8.896;2023-07-22T07:26:27;6.23;;;3.13;;
5125;SDS011;63008;53.112;8.896;2023-07-22T07:28:28;5.73;;;4.00;;
5125;SDS011;63008;53.112;8.896;2023-07-22T07:30:29;8.87;;;3.00;;
5125;SDS011;63008;53.112;8.896;2023-07-22T07:32:31;3.47;;;2.63;;
5125;SDS011;63008;53.112;8.896;2023-07-22T07:34:32;4.80;;;2.87;;
5125;SDS011;63008;53.112;8.896;2023-07-22T07:36:33;3.13;;;2.80;;
5125;SDS011;63008;53.112;8.896;2023-07-22T07:38:35;2.60;;;2.40;;
5125;SDS011;63008;53.112;8.896;2023-07-22T07:40:36;3.07;;;2.60;;
5125;SDS011;63008;53.112;8.896;2023-07-22T07:42:37;3.30;;;2.13;;
5125;SDS011;63008;53.112;8.896;2023-07-22T07:44:38;3.87;;;2.67;;
5125;SDS011;63008;53.112;8.896;2023-07-22T07:46:39;5.70;;;3.00;;
5125;SDS011;63008;53.112;8.896;2023-07-22T07:48:40;4.20;;;3.10;;
5125;SDS011;63008;53.112;8.896;2023-07-22T07:50:41;3.53;;;3.07;;
5125;SDS011;63008;53.112;8.896;2023-07-22T07:52:42;4.53;;;3.03;;
5125;SDS011;63008;53.112;8.896;2023-07-22T07:54:43;4.20;;;3.10;;
5125;SDS011;63008;53.112;8.896;2023-07-22T07:56:44;6.13;;;3.60;;
5125;SDS011;63008;53.112;8.896;2023-07-22T07:58:46;3.40;;;2.90;;
5125;SDS011;63008;53.112;8.896;2023-07-22T08:00:48;7.00;;;3.70;;
5125;SDS011;63008;53.112;8.896;2023-07-22T08:02:49;4.83;;;3.53;;
5125;SDS011;63008;53.112;8.896;2023-07-22T08:04:50;5.77;;;3.40;;
5125;SDS011;63008;53.112;8.896;2023-07-22T08:06:51;7.03;;;3.63;;
5125;SDS011;63008;53.112;8.896;2023-07-22T08:08:51;3.63;;;2.77;;
5125;SDS011;63008;53.112;8.896;2023-07-22T08:13:10;7.13;;;3.70;;
5125;SDS011;63008;53.112;8.896;2023-07-22T08:15:11;5.60;;;3.67;;
5125;SDS011;63008;53.112;8.896;2023-07-22T08:17:12;5.57;;;2.83;;
5125;SDS011;63008;53.112;8.896;2023-07-22T08:19:13;6.47;;;3.93;;
5125;SDS011;63008;53.112;8.896;2023-07-22T08:21:14;3.13;;;2.80;;
5125;SDS011;63008;53.112;8.896;2023-07-22T08:23:14;5.03;;;2.90;;
5125;SDS011;63008;53.112;8.896;2023-07-22T08:25:15;7.10;;;3.50;;
5125;SDS011;63008;53.112;8.896;2023-07-22T08:27:16;4.80;;;3.73;;
5125;SDS011;63008;53.112;8.896;2023-07-22T08:29:17;8.13;;;3.40;;
5125;SDS011;63008;53.112;8.896;2023-07-22T08:31:18;4.07;;;3.00;;
5125;SDS011;63008;53.112;8.896;2023-07-22T08:33:19;6.30;;;3.40;;
5125;SDS011;63008;53.112;8.896;2023-07-22T08:35:20;3.53;;;3.23;;
5125;SDS011;63008;53.112;8.896;2023-07-22T08:37:22;5.17;;;3.80;;
5125;SDS011;63008;53.112;8.896;2023-07-22T08:39:23;5.43;;;3.50;;
5125;SDS011;63008;53.112;8.896;2023-07-22T08:41:24;5.10;;;3.50;;
5125;SDS011;63008;53.112;8.896;2023-07-22T08:43:27;5.90;;;3.30;;
5125;SDS011;63008;53.112;8.896;2023-07-22T08:45:30;8.07;;;3.40;;
5125;SDS011;63008;53.112;8.896;2023-07-22T08:47:38;5.97;;;3.03;;
5125;SDS011;63008;53.112;8.896;2023-07-22T08:49:46;5.47;;;3.90;;
5125;SDS011;63008;53.112;8.896;2023-07-22T08:51:53;6.93;;;3.77;;
5125;SDS011;63008;53.112;8.896;2023-07-22T08:53:57;4.30;;;3.90;;
5125;SDS011;63008;53.112;8.896;2023-07-22T08:56:00;4.53;;;4.13;;
5125;SDS011;63008;53.112;8.896;2023-07-22T08:58:01;7.07;;;4.67;;
5125;SDS011;63008;53.112;8.896;2023-07-22T09:00:03;4.77;;;4.37;;
5125;SDS011;63008;53.112;8.896;2023-07-22T09:02:08;6.10;;;4.10;;
5125;SDS011;63008;53.112;8.896;2023-07-22T09:04:12;11.37;;;4.33;;
5125;SDS011;63008;53.112;8.896;2023-07-22T09:06:13;6.80;;;4.60;;
5125;SDS011;63008;53.112;8.896;2023-07-22T09:08:14;5.40;;;4.70;;
5125;SDS011;63008;53.112;8.896;2023-07-22T09:10:15;6.93;;;4.90;;
5125;SDS011;63008;53.112;8.896;2023-07-22T09:12:17;9.40;;;4.50;;
5125;SDS011;63008;53.112;8.896;2023-07-22T09:14:18;7.63;;;4.80;;
5125;SDS011;63008;53.112;8.896;2023-07-22T09:16:20;9.67;;;5.27;;
5125;SDS011;63008;53.112;8.896;2023-07-22T09:18:21;6.63;;;4.87;;
5125;SDS011;63008;53.112;8.896;2023-07-22T09:20:22;9.50;;;5.97;;
5125;SDS011;63008;53.112;8.896;2023-07-22T09:22:26;6.80;;;5.33;;
5125;SDS011;63008;53.112;8.896;2023-07-22T09:24:27;5.20;;;4.63;;
5125;SDS011;63008;53.112;8.896;2023-07-22T09:26:28;5.17;;;4.73;;
5125;SDS011;63008;53.112;8.896;2023-07-22T09:28:47;8.03;;;5.40;;
5125;SDS011;63008;53.112;8.896;2023-07-22T09:30:48;7.10;;;5.80;;
5125;SDS011;63008;53.112;8.896;2023-07-22T09:33:02;12.63;;;6.00;;
5125;SDS011;63008;53.112;8.896;2023-07-22T09:35:04;7.03;;;5.23;;
5125;SDS011;63008;53.112;8.896;2023-07-22T09:37:10;8.03;;;5.57;;
5125;SDS011;63008;53.112;8.896;2023-07-22T09:39:11;12.50;;;5.83;;
5125;SDS011;63008;53.112;8.896;2023-07-22T09:41:18;7.20;;;6.00;;
5125;SDS011;63008;53.112;8.896;2023-07-22T09:43:21;7.73;;;5.97;;
5125;SDS011;63008;53.112;8.896;2023-07-22T09:45:23;6.47;;;5.87;;
5125;SDS011;63008;53.112;8.896;2023-07-22T09:47:25;7.80;;;6.37;;
5125;SDS011;63008;53.112;8.896;2023-07-22T09:49:26;9.17;;;6.33;;
5125;SDS011;63008;53.112;8.896;2023-07-22T09:51:32;9.20;;;6.00;;
5125;SDS011;63008;53.112;8.896;2023-07-22T09:53:34;6.67;;;5.97;;
5125;SDS011;63008;53.112;8.896;2023-07-22T09:55:35;10.70;;;6.00;;
5125;SDS011;63008;53.112;8.896;2023-07-22T09:57:36;13.50;;;6.90;;
5125;SDS011;63008;53.112;8.896;2023-07-22T09:59:37;7.07;;;6.37;;
5125;SDS011;63008;53.112;8.896;2023-07-22T10:01:39;8.07;;;6.37;;
5125;SDS011;63008;53.112;8.896;2023-07-22T10:03:40;10.23;;;7.10;;
5125;SDS011;63008;53.112;8.896;2023-07-22T10:05:43;8.27;;;5.77;;
5125;SDS011;63008;53.112;8.896;2023-07-22T10:07:48;11.27;;;7.50;;
5125;SDS011;63008;53.112;8.896;2023-07-22T10:09:51;8.63;;;6.67;;
5125;SDS011;63008;53.112;8.896;2023-07-22T10:11:55;8.87;;;7.37;;
5125;SDS011;63008;53.112;8.896;2023-07-22T10:13:56;11.50;;;6.23;;
5125;SDS011;63008;53.112;8.896;2023-07-22T10:15:57;7.37;;;6.63;;
5125;SDS011;63008;53.112;8.896;2023-07-22T10:18:00;8.50;;;6.70;;
5125;SDS011;63008;53.112;8.896;2023-07-22T10:20:02;7.73;;;6.50;;
5125;SDS011;63008;53.112;8.896;2023-07-22T10:22:07;6.97;;;6.27;;
5125;SDS011;63008;53.112;8.896;2023-07-22T10:24:10;11.50;;;6.37;;
5125;SDS011;63008;53.112;8.896;2023-07-22T10:26:12;8.00;;;6.23;;
5125;SDS011;63008;53.112;8.896;2023-07-22T10:28:14;6.17;;;5.10;;
5125;SDS011;63008;53.112;8.896;2023-07-22T10:30:16;7.47;;;6.50;;
5125;SDS011;63008;53.112;8.896;2023-07-22T10:32:18;6.93;;;5.67;;
5125;SDS011;63008;53.112;8.896;2023-07-22T10:34:23;9.20;;;5.90;;
5125;SDS011;63008;53.112;8.896;2023-07-22T10:36:28;7.60;;;5.57;;
5125;SDS011;63008;53.112;8.896;2023-07-22T10:38:30;8.97;;;6.80;;
5125;SDS011;63008;53.112;8.896;2023-07-22T10:40:32;7.00;;;5.77;;
5125;SDS011;63008;53.112;8.896;2023-07-22T10:42:59;6.23;;;5.53;;
5125;SDS011;63008;53.112;8.896;2023-07-22T10:45:04;7.43;;;5.70;;
5125;SDS011;63008;53.112;8.896;2023-07-22T10:47:33;15.20;;;6.00;;
5125;SDS011;63008;53.112;8.896;2023-07-22T10:49:44;6.60;;;5.90;;
5125;SDS011;63008;53.112;8.896;2023-07-22T10:51:49;6.17;;;5.57;;
5125;SDS011;63008;53.112;8.896;2023-07-22T10:53:51;8.73;;;6.50;;
5125;SDS011;63008;53.112;8.896;2023-07-22T10:56:11;12.03;;;6.30;;
5125;SDS011;63008;53.112;8.896;2023-07-22T10:58:13;12.27;;;6.20;;
5125;SDS011;63008;53.112;8.896;2023-07-22T11:00:18;6.93;;;5.70;;
5125;SDS011;63008;53.112;8.896;2023-07-22T11:02:27;8.10;;;5.13;;
5125;SDS011;63008;53.112;8.896;2023-07-22T11:04:30;6.50;;;4.90;;
5125;SDS011;63008;53.112;8.896;2023-07-22T11:06:31;7.00;;;5.00;;
5125;SDS011;63008;53.112;8.896;2023-07-22T11:08:36;6.77;;;5.13;;
5125;SDS011;63008;53.112;8.896;2023-07-22T11:10:38;8.20;;;5.17;;
5125;SDS011;63008;53.112;8.896;2023-07-22T11:12:52;5.83;;;4.97;;
5125;SDS011;63008;53.112;8.896;2023-07-22T11:15:03;7.23;;;5.47;;
5125;SDS011;63008;53.112;8.896;2023-07-22T11:17:06;5.10;;;4.60;;
5125;SDS011;63008;53.112;8.896;2023-07-22T11:19:14;4.70;;;4.27;;
5125;SDS011;63008;53.112;8.896;2023-07-22T11:21:16;5.37;;;4.87;;
5125;SDS011;63008;53.112;8.896;2023-07-22T11:23:17;4.97;;;4.20;;
5125;SDS011;63008;53.112;8.896;2023-07-22T11:25:18;8.10;;;4.43;;
5125;SDS011;63008;53.112;8.896;2023-07-22T11:27:19;7.20;;;4.87;;
5125;SDS011;63008;53.112;8.896;2023-07-22T11:29:20;6.20;;;5.13;;
5125;SDS011;63008;53.112;8.896;2023-07-22T11:31:21;4.47;;;4.07;;
5125;SDS011;63008;53.112;8.896;2023-07-22T11:33:22;5.50;;;4.30;;
5125;SDS011;63008;53.112;8.896;2023-07-22T11:35:23;8.57;;;5.37;;
5125;SDS011;63008;53.112;8.896;2023-07-22T11:37:24;12.20;;;5.20;;
5125;SDS011;63008;53.112;8.896;2023-07-22T11:39:28;6.27;;;5.33;;
5125;SDS011;63008;53.112;8.896;2023-07-22T11:41:32;6.43;;;4.70;;
5125;SDS011;63008;53.112;8.896;2023-07-22T11:43:33;10.63;;;5.53;;
5125;SDS011;63008;53.112;8.896;2023-07-22T11:45:37;6.70;;;4.77;;
5125;SDS011;63008;53.112;8.896;2023-07-22T11:47:38;5.13;;;4.50;;
5125;SDS011;63008;53.112;8.896;2023-07-22T11:49:40;4.37;;;3.97;;
5125;SDS011;63008;53.112;8.896;2023-07-22T11:51:42;5.47;;;4.60;;
5125;SDS011;63008;53.112;8.896;2023-07-22T11:53:45;7.90;;;3.83;;
5125;SDS011;63008;53.112;8.896;2023-07-22T11:55:51;4.40;;;4.00;;
5125;SDS011;63008;53.112;8.896;2023-07-22T11:57:52;4.60;;;4.20;;
5125;SDS011;63008;53.112;8.896;2023-07-22T11:59:55;4.23;;;3.83;;
5125;SDS011;63008;53.112;8.896;2023-07-22T12:01:56;10.23;;;4.13;;
5125;SDS011;63008;53.112;8.896;2023-07-22T12:03:57;7.47;;;4.40;;
5125;SDS011;63008;53.112;8.896;2023-07-22T12:06:02;5.83;;;4.60;;
5125;SDS011;63008;53.112;8.896;2023-07-22T12:08:04;6.30;;;4.50;;
5125;SDS011;63008;53.112;8.896;2023-07-22T12:10:06;5.40;;;4.90;;
5125;SDS011;63008;53.112;8.896;2023-07-22T12:12:08;4.50;;;4.00;;
5125;SDS011;63008;53.112;8.896;2023-07-22T12:14:10;4.83;;;4.10;;
5125;SDS011;63008;53.112;8.896;2023-07-22T12:16:12;4.70;;;4.10;;
5125;SDS011;63008;53.112;8.896;2023-07-22T12:18:14;4.47;;;4.07;;
5125;SDS011;63008;53.112;8.896;2023-07-22T12:20:16;7.23;;;4.47;;
5125;SDS011;63008;53.112;8.896;2023-07-22T12:22:18;4.23;;;3.83;;
5125;SDS011;63008;53.112;8.896;2023-07-22T12:24:19;5.13;;;4.63;;